Time;durP1;ratioP1;P1;durP2;ratioP2;P2;SDS_P1;SDS_P2;PMS_P1;PMS_P2;Temp;Humidity;BMP_temperature;BMP_pressure;BME280_temperature;BME280_humidity;BME280_pressure;Samples;Min_cycle;Max_cycle;Signal;HPM_P1;HPM_P2
2024/01/02 00:00:14;;;;;;;13.48;3.83;;;5.10;99.90;;;;;;2061072;28;20053;-71
2024/01/02 00:01:16;;;;;;;14.50;3.95;;;5.10;99.90;;;;;;2061762;28;20046;-71
2024/01/02 00:02:16;;;;;;;16.02;3.80;;;5.00;99.90;;;;;;2062545;28;20045;-72
2024/01/02 00:03:17;;;;;;;14.70;4.30;;;5.00;99.90;;;;;;2064791;28;20061;-71
2024/01/02 00:04:17;;;;;;;16.70;4.47;;;5.00;99.90;;;;;;2063528;28;20580;-71
2024/01/02 00:05:19;;;;;;;18.13;5.40;;;4.90;99.90;;;;;;2064053;28;20033;-73
2024/01/02 00:06:19;;;;;;;16.25;4.38;;;4.90;99.90;;;;;;2060982;28;20515;-71
2024/01/02 00:07:20;;;;;;;18.45;4.55;;;4.80;99.90;;;;;;2060176;28;20046;-71
2024/01/02 00:08:20;;;;;;;22.60;4.25;;;4.90;99.90;;;;;;2062926;28;20026;-71
2024/01/02 00:09:21;;;;;;;16.55;4.05;;;4.80;99.90;;;;;;2062613;28;20022;-71
2024/01/02 00:10:22;;;;;;;15.95;3.63;;;4.80;99.90;;;;;;2064785;28;20022;-72
2024/01/02 00:11:22;;;;;;;19.30;4.68;;;4.80;99.90;;;;;;2060916;28;20050;-72
2024/01/02 00:12:23;;;;;;;15.73;4.45;;;4.80;99.90;;;;;;2060928;28;20441;-72
2024/01/02 00:13:24;;;;;;;13.63;3.40;;;4.80;99.90;;;;;;2064532;28;20030;-72
2024/01/02 00:14:28;;;;;;;17.63;4.00;;;4.80;99.90;;;;;;2063390;28;20390;-71
2024/01/02 00:15:28;;;;;;;17.20;3.85;;;4.90;99.90;;;;;;2064040;28;20022;-72
2024/01/02 00:16:29;;;;;;;18.23;4.30;;;4.90;99.90;;;;;;2061756;28;20605;-71
2024/01/02 00:17:29;;;;;;;17.95;4.47;;;4.90;99.90;;;;;;2064871;28;20038;-71
2024/01/02 00:18:30;;;;;;;14.23;3.70;;;4.90;99.90;;;;;;2064004;28;20038;-71
2024/01/02 00:19:30;;;;;;;17.40;3.90;;;4.90;99.90;;;;;;2063796;28;20034;-72
2024/01/02 00:20:31;;;;;;;21.13;4.50;;;4.90;99.90;;;;;;2063859;28;20042;-71
2024/01/02 00:21:31;;;;;;;16.67;3.60;;;4.90;99.90;;;;;;2055679;28;20035;-71
2024/01/02 00:22:32;;;;;;;15.55;3.70;;;4.90;99.90;;;;;;2060420;28;20037;-71
2024/01/02 00:23:32;;;;;;;16.63;4.00;;;4.90;99.90;;;;;;2063893;28;20034;-72
2024/01/02 00:24:33;;;;;;;13.82;3.50;;;5.00;99.90;;;;;;2051969;28;20027;-71
2024/01/02 00:25:34;;;;;;;15.57;3.60;;;4.90;99.90;;;;;;2059485;28;20081;-72
2024/01/02 00:26:35;;;;;;;15.85;3.80;;;4.90;99.90;;;;;;2060888;28;20338;-72
2024/01/02 00:27:36;;;;;;;13.45;3.22;;;4.90;99.90;;;;;;2060740;28;20085;-72
2024/01/02 00:28:36;;;;;;;13.63;3.58;;;4.90;99.90;;;;;;2060216;28;20088;-72
2024/01/02 00:29:37;;;;;;;12.82;3.50;;;4.90;99.90;;;;;;2060714;28;20030;-72
2024/01/02 00:30:39;;;;;;;11.60;3.38;;;4.90;99.90;;;;;;2056085;28;20076;-72
2024/01/02 00:31:40;;;;;;;12.27;3.70;;;4.90;99.90;;;;;;2052383;28;20502;-72
2024/01/02 00:32:41;;;;;;;14.02;4.00;;;4.90;99.90;;;;;;2055792;28;20019;-72
2024/01/02 00:33:41;;;;;;;14.00;3.60;;;4.90;99.90;;;;;;2051815;28;20055;-70
2024/01/02 00:34:42;;;;;;;19.00;3.92;;;4.90;99.90;;;;;;2055613;28;20026;-71
2024/01/02 00:35:42;;;;;;;14.60;3.70;;;5.00;99.90;;;;;;2064146;28;20178;-70
2024/01/02 00:36:43;;;;;;;18.00;4.38;;;5.00;99.90;;;;;;2052785;28;20105;-71
2024/01/02 00:37:43;;;;;;;13.55;3.90;;;5.00;99.90;;;;;;2055721;28;20023;-71
2024/01/02 00:38:44;;;;;;;11.68;3.72;;;5.00;99.90;;;;;;2064598;28;20130;-71
2024/01/02 00:39:45;;;;;;;17.02;4.38;;;5.00;99.90;;;;;;2056763;28;20029;-71
2024/01/02 00:40:45;;;;;;;16.70;4.60;;;5.00;99.90;;;;;;2060411;28;20038;-71
2024/01/02 00:41:46;;;;;;;19.45;4.50;;;5.00;99.90;;;;;;2052017;28;20027;-71
2024/01/02 00:42:46;;;;;;;15.30;4.20;;;5.00;99.90;;;;;;2059933;28;20045;-71
2024/01/02 00:43:47;;;;;;;15.98;4.60;;;5.00;99.90;;;;;;2057411;28;20026;-71
2024/01/02 00:44:48;;;;;;;17.48;4.85;;;5.00;99.90;;;;;;2064755;28;20069;-71
2024/01/02 00:45:49;;;;;;;18.67;4.65;;;5.00;99.90;;;;;;2063828;28;20499;-71
2024/01/02 00:46:49;;;;;;;20.38;4.88;;;5.00;99.90;;;;;;2052582;28;20027;-72
2024/01/02 00:47:51;;;;;;;20.25;4.78;;;5.00;99.90;;;;;;2062977;28;20163;-72
2024/01/02 00:48:52;;;;;;;14.23;4.55;;;5.00;99.90;;;;;;2071979;28;20018;-72
2024/01/02 00:49:52;;;;;;;15.45;4.43;;;5.00;99.90;;;;;;2060539;28;20384;-71
2024/01/02 00:50:53;;;;;;;13.18;4.47;;;5.00;99.90;;;;;;2054936;28;20026;-71
2024/01/02 00:51:53;;;;;;;16.42;4.80;;;5.00;99.90;;;;;;2063887;28;20026;-72
2024/01/02 00:52:54;;;;;;;19.27;5.25;;;5.10;99.90;;;;;;2060636;28;20093;-72
2024/01/02 00:53:54;;;;;;;15.20;4.45;;;5.10;99.90;;;;;;2052743;28;20128;-72
2024/01/02 00:54:55;;;;;;;15.50;4.53;;;5.10;99.90;;;;;;2054258;28;20109;-71
2024/01/02 00:55:56;;;;;;;15.55;4.57;;;5.10;99.90;;;;;;2063881;28;20025;-72
2024/01/02 00:56:56;;;;;;;15.80;4.30;;;5.10;99.90;;;;;;2067962;28;20029;-72
2024/01/02 00:57:57;;;;;;;16.27;4.43;;;5.10;99.90;;;;;;2057657;28;20031;-71
2024/01/02 00:58:57;;;;;;;15.13;4.38;;;5.10;99.90;;;;;;2059686;28;20113;-70
2024/01/02 00:59:58;;;;;;;12.38;4.07;;;5.10;99.90;;;;;;2071171;28;20022;-71
2024/01/02 01:00:59;;;;;;;15.25;4.38;;;5.10;99.90;;;;;;2060943;28;20105;-71
2024/01/02 01:02:00;;;;;;;18.08;4.57;;;5.10;99.90;;;;;;2062249;28;20023;-71
2024/01/02 01:03:01;;;;;;;13.45;4.40;;;5.10;99.90;;;;;;2071766;28;20083;-72
2024/01/02 01:04:02;;;;;;;12.43;4.30;;;5.10;99.90;;;;;;2061058;28;20023;-72
2024/01/02 01:05:03;;;;;;;15.18;4.00;;;5.10;99.90;;;;;;2062197;28;20029;-71
2024/01/02 01:06:04;;;;;;;17.15;5.00;;;5.20;99.90;;;;;;2067917;28;20109;-72
2024/01/02 01:07:05;;;;;;;14.15;3.63;;;5.20;99.90;;;;;;2057481;28;20121;-72
2024/01/02 01:08:05;;;;;;;11.00;3.70;;;5.30;99.90;;;;;;2051492;28;20480;-73
2024/01/02 01:09:06;;;;;;;13.15;3.92;;;5.30;99.90;;;;;;2061478;28;20026;-72
2024/01/02 01:10:07;;;;;;;9.77;2.53;;;5.30;99.90;;;;;;2062053;28;20030;-71
2024/01/02 01:11:07;;;;;;;10.73;2.72;;;5.40;99.90;;;;;;2061543;28;20034;-72
2024/01/02 01:12:08;;;;;;;11.73;2.58;;;5.50;99.90;;;;;;2055174;28;20556;-72
2024/01/02 01:13:08;;;;;;;12.52;2.90;;;5.50;99.90;;;;;;2062172;28;20526;-72
2024/01/02 01:14:09;;;;;;;10.35;2.85;;;5.60;99.90;;;;;;2061738;28;20030;-72
2024/01/02 01:15:09;;;;;;;11.13;2.60;;;5.70;99.90;;;;;;2064194;28;20037;-72
2024/01/02 01:16:10;;;;;;;10.65;2.70;;;5.80;99.90;;;;;;2060343;28;20026;-71
2024/01/02 01:17:11;;;;;;;11.38;2.50;;;5.80;99.90;;;;;;2057258;28;20109;-72
2024/01/02 01:18:11;;;;;;;8.98;2.28;;;5.90;99.90;;;;;;2059477;28;20513;-71
2024/01/02 01:19:12;;;;;;;9.27;2.20;;;6.00;99.90;;;;;;2062452;28;20023;-71
2024/01/02 01:20:13;;;;;;;7.80;2.00;;;6.00;99.90;;;;;;2059617;28;20045;-72
2024/01/02 01:21:13;;;;;;;8.38;1.85;;;6.00;99.90;;;;;;2059697;28;20496;-72
2024/01/02 01:22:14;;;;;;;5.75;1.70;;;6.00;99.90;;;;;;2062790;28;20092;-72
2024/01/02 01:23:14;;;;;;;5.25;1.25;;;6.00;99.90;;;;;;2061654;28;20101;-72
2024/01/02 01:24:15;;;;;;;4.53;1.30;;;6.10;99.90;;;;;;2064157;28;20649;-72
2024/01/02 01:25:15;;;;;;;5.93;1.45;;;6.10;99.90;;;;;;2060348;28;20030;-72
2024/01/02 01:26:16;;;;;;;5.38;1.45;;;6.10;99.90;;;;;;2060174;28;20023;-72
2024/01/02 01:27:17;;;;;;;4.65;1.25;;;6.00;99.90;;;;;;2064242;28;20026;-72
2024/01/02 01:28:17;;;;;;;4.50;1.10;;;6.00;99.90;;;;;;2059326;28;20037;-72
2024/01/02 01:29:20;;;;;;;6.15;1.42;;;6.00;99.90;;;;;;2059680;28;20125;-73
2024/01/02 01:30:20;;;;;;;6.10;1.50;;;5.90;99.90;;;;;;2064132;28;20511;-72
2024/01/02 01:31:21;;;;;;;5.50;1.30;;;5.90;99.90;;;;;;2063025;28;20022;-72
2024/01/02 01:32:21;;;;;;;2.55;1.15;;;5.90;99.90;;;;;;2059797;28;20030;-72
2024/01/02 01:33:22;;;;;;;3.60;1.10;;;5.80;99.90;;;;;;2063415;28;20105;-71
2024/01/02 01:34:23;;;;;;;4.55;1.30;;;5.80;99.90;;;;;;2055170;28;20029;-72
2024/01/02 01:35:24;;;;;;;4.80;1.30;;;5.80;99.90;;;;;;2059643;28;20804;-72
2024/01/02 01:36:24;;;;;;;2.35;1.20;;;5.80;99.90;;;;;;2071359;28;20037;-72
2024/01/02 01:37:25;;;;;;;5.13;1.13;;;5.70;99.90;;;;;;2064087;28;20031;-72
2024/01/02 01:38:26;;;;;;;3.13;1.20;;;5.70;99.90;;;;;;2063040;28;20030;-71
2024/01/02 01:39:26;;;;;;;5.50;1.10;;;5.70;99.90;;;;;;2059606;28;20082;-72
2024/01/02 01:40:27;;;;;;;3.95;1.00;;;5.70;99.90;;;;;;2063954;28;20035;-72
2024/01/02 01:41:27;;;;;;;3.33;1.27;;;5.60;99.90;;;;;;2063039;28;20523;-72
2024/01/02 01:42:28;;;;;;;6.53;1.33;;;5.60;99.90;;;;;;2059909;28;20069;-72
2024/01/02 01:43:28;;;;;;;2.65;1.10;;;5.60;99.90;;;;;;2063516;28;20510;-71
2024/01/02 01:44:29;;;;;;;3.45;1.10;;;5.60;99.90;;;;;;2063898;28;20042;-71
2024/01/02 01:45:30;;;;;;;2.85;1.10;;;5.60;99.90;;;;;;2060604;28;20045;-72
2024/01/02 01:46:39;;;;;;;5.15;1.20;;;5.60;99.90;;;;;;2063244;28;20046;-71
2024/01/02 01:47:40;;;;;;;2.67;1.20;;;5.60;99.90;;;;;;2063924;28;20125;-72
2024/01/02 01:48:41;;;;;;;4.95;1.20;;;5.60;99.90;;;;;;2062276;28;20128;-72
2024/01/02 01:49:42;;;;;;;3.88;1.20;;;5.50;99.90;;;;;;2060982;28;20042;-72
2024/01/02 01:50:43;;;;;;;2.95;1.17;;;5.60;99.90;;;;;;2055246;28;20542;-70
2024/01/02 01:51:45;;;;;;;3.67;1.02;;;5.60;99.90;;;;;;2062077;28;20145;-71
2024/01/02 01:52:46;;;;;;;3.47;1.00;;;5.60;99.90;;;;;;2061044;28;20033;-71
2024/01/02 01:53:47;;;;;;;3.88;1.20;;;5.50;99.90;;;;;;2057978;28;20061;-71
2024/01/02 01:54:48;;;;;;;2.88;1.20;;;5.50;99.90;;;;;;2063904;28;20033;-72
2024/01/02 01:55:49;;;;;;;2.03;1.05;;;5.50;99.90;;;;;;2063169;28;20060;-71
2024/01/02 01:56:51;;;;;;;4.97;1.20;;;5.50;99.90;;;;;;2067911;28;20030;-71
2024/01/02 01:57:53;;;;;;;3.00;0.98;;;5.50;99.90;;;;;;2059449;28;20030;-71
2024/01/02 01:58:54;;;;;;;3.42;1.13;;;5.50;99.90;;;;;;2050920;28;20035;-71
2024/01/02 01:59:55;;;;;;;4.55;1.20;;;5.50;99.90;;;;;;2055176;28;20026;-71
2024/01/02 02:00:56;;;;;;;5.88;1.13;;;5.50;99.90;;;;;;2059191;28;20437;-71
2024/01/02 02:01:57;;;;;;;3.47;0.90;;;5.50;99.90;;;;;;2062873;28;20022;-72
2024/01/02 02:02:58;;;;;;;2.10;0.80;;;5.50;99.90;;;;;;2062882;28;20030;-71
2024/01/02 02:04:00;;;;;;;5.13;1.00;;;5.40;99.90;;;;;;2067729;28;20037;-72
2024/01/02 02:05:02;;;;;;;5.32;1.10;;;5.40;99.90;;;;;;2066555;28;20595;-72
2024/01/02 02:06:03;;;;;;;5.43;1.20;;;5.40;99.90;;;;;;2063581;28;20092;-72
2024/01/02 02:07:04;;;;;;;2.97;1.10;;;5.40;99.90;;;;;;2060453;28;20060;-72
2024/01/02 02:08:05;;;;;;;5.32;1.38;;;5.40;99.90;;;;;;2061789;28;20446;-72
2024/01/02 02:09:05;;;;;;;3.05;1.10;;;5.40;99.90;;;;;;2063259;28;20090;-71
2024/01/02 02:10:09;;;;;;;3.75;1.13;;;5.50;99.90;;;;;;2059311;28;20042;-72
2024/01/02 02:11:12;;;;;;;3.03;1.17;;;5.50;99.90;;;;;;2060189;28;20030;-72
2024/01/02 02:12:13;;;;;;;3.53;1.20;;;5.50;99.90;;;;;;2063233;28;20419;-72
2024/01/02 02:13:14;;;;;;;2.13;1.20;;;5.40;99.90;;;;;;2051105;28;20038;-72
2024/01/02 02:14:15;;;;;;;4.35;1.10;;;5.40;99.90;;;;;;2059168;28;20026;-71
2024/01/02 02:15:15;;;;;;;4.55;1.40;;;5.40;99.90;;;;;;2070448;28;20108;-71
2024/01/02 02:16:16;;;;;;;3.80;1.38;;;5.40;99.90;;;;;;2059172;28;20116;-71
2024/01/02 02:17:20;;;;;;;4.57;1.15;;;5.50;99.90;;;;;;2059303;28;20117;-72
2024/01/02 02:18:20;;;;;;;5.20;1.20;;;5.40;99.90;;;;;;2059293;28;20109;-71
2024/01/02 02:19:21;;;;;;;2.35;1.10;;;5.40;99.90;;;;;;2060635;28;20034;-71
2024/01/02 02:20:21;;;;;;;4.85;1.15;;;5.40;99.90;;;;;;2059357;28;20042;-71
2024/01/02 02:21:22;;;;;;;3.97;1.08;;;5.40;99.90;;;;;;2050381;28;20027;-72
2024/01/02 02:22:28;;;;;;;4.40;1.17;;;5.40;99.90;;;;;;2059091;28;20026;-71
2024/01/02 02:23:29;;;;;;;2.33;1.02;;;5.40;99.90;;;;;;2047924;28;20034;-71
2024/01/02 02:24:30;;;;;;;4.28;1.13;;;5.30;99.90;;;;;;2063262;28;20061;-71
2024/01/02 02:25:31;;;;;;;1.98;1.00;;;5.40;99.90;;;;;;2063914;28;20045;-71
2024/01/02 02:26:31;;;;;;;3.40;1.05;;;5.40;99.90;;;;;;2059923;28;20057;-71
2024/01/02 02:27:33;;;;;;;5.25;1.08;;;5.30;99.90;;;;;;2063275;28;20073;-72
2024/01/02 02:28:34;;;;;;;3.80;1.27;;;5.30;99.90;;;;;;2060344;28;20548;-72
2024/01/02 02:29:34;;;;;;;3.20;1.20;;;5.30;99.90;;;;;;2060097;28;20037;-72
2024/01/02 02:30:35;;;;;;;4.43;1.20;;;5.30;99.90;;;;;;2059932;28;20053;-72
2024/01/02 02:31:35;;;;;;;3.95;1.20;;;5.20;99.90;;;;;;2062310;28;20071;-72
2024/01/02 02:32:36;;;;;;;3.63;1.10;;;5.20;99.90;;;;;;2063848;28;20026;-72
2024/01/02 02:33:36;;;;;;;3.45;1.27;;;5.10;99.90;;;;;;2059661;28;20145;-72
2024/01/02 02:34:37;;;;;;;4.18;1.10;;;5.10;99.90;;;;;;2054785;28;20062;-72
2024/01/02 02:35:37;;;;;;;3.60;1.10;;;5.10;99.90;;;;;;2055405;28;20476;-72
2024/01/02 02:36:38;;;;;;;3.65;1.13;;;5.10;99.90;;;;;;2067362;28;20471;-72
2024/01/02 02:37:39;;;;;;;5.60;1.20;;;5.00;99.90;;;;;;2063125;28;20293;-71
2024/01/02 02:38:39;;;;;;;4.20;1.30;;;5.00;99.90;;;;;;2059720;28;20030;-72
2024/01/02 02:39:40;;;;;;;3.40;1.17;;;5.00;99.90;;;;;;2063219;28;20026;-72
2024/01/02 02:40:41;;;;;;;3.00;1.10;;;5.00;99.90;;;;;;2062810;28;20315;-71
2024/01/02 02:41:42;;;;;;;4.60;1.20;;;5.00;99.90;;;;;;2059051;28;20026;-71
2024/01/02 02:42:43;;;;;;;6.55;1.58;;;5.00;99.90;;;;;;2059757;28;20117;-73
2024/01/02 02:43:43;;;;;;;3.30;1.60;;;5.00;99.90;;;;;;2059564;28;20038;-71
2024/01/02 02:44:44;;;;;;;5.75;1.80;;;5.00;99.90;;;;;;2061057;28;20046;-71
2024/01/02 02:45:45;;;;;;;4.00;1.40;;;5.00;99.90;;;;;;2061337;28;20121;-71
2024/01/02 02:46:46;;;;;;;3.88;1.55;;;5.00;99.90;;;;;;2062724;28;20421;-72
2024/01/02 02:47:46;;;;;;;4.25;1.40;;;5.00;99.90;;;;;;2059377;28;20077;-72
2024/01/02 02:48:47;;;;;;;3.70;1.60;;;5.00;99.90;;;;;;2050980;28;20042;-71
2024/01/02 02:49:49;;;;;;;4.95;1.50;;;5.00;99.90;;;;;;2055010;28;20029;-71
2024/01/02 02:50:50;;;;;;;3.42;1.25;;;5.00;99.90;;;;;;2062850;28;20022;-72
2024/01/02 02:51:50;;;;;;;5.18;1.58;;;5.00;99.90;;;;;;2054103;28;20569;-73
2024/01/02 02:52:51;;;;;;;3.97;1.38;;;5.00;99.90;;;;;;2051978;28;20102;-71
2024/01/02 02:53:52;;;;;;;5.63;1.73;;;5.10;99.90;;;;;;2056347;28;20077;-71
2024/01/02 02:54:52;;;;;;;5.18;1.50;;;5.00;99.90;;;;;;2065239;28;20125;-71
2024/01/02 02:55:53;;;;;;;3.58;1.45;;;5.00;99.90;;;;;;2055075;28;20050;-72
2024/01/02 02:56:53;;;;;;;4.18;1.30;;;5.00;99.90;;;;;;2069037;28;20030;-71
2024/01/02 02:57:54;;;;;;;3.45;1.35;;;5.00;99.90;;;;;;2066998;28;20120;-71
2024/01/02 02:58:54;;;;;;;4.38;1.30;;;5.00;99.90;;;;;;2061003;28;20022;-72
2024/01/02 02:59:55;;;;;;;4.15;1.30;;;5.00;99.90;;;;;;2060763;28;20374;-72
2024/01/02 03:00:55;;;;;;;3.80;1.40;;;5.00;99.90;;;;;;2059479;28;20411;-72
2024/01/02 03:01:56;;;;;;;4.72;1.30;;;5.10;99.90;;;;;;2052444;28;20077;-72
2024/01/02 03:02:56;;;;;;;4.55;1.35;;;5.10;99.90;;;;;;2050843;28;20480;-72
2024/01/02 03:03:57;;;;;;;2.88;1.33;;;5.10;99.90;;;;;;2058271;28;20468;-72
2024/01/02 03:04:58;;;;;;;4.38;1.42;;;5.10;99.90;;;;;;2062020;28;20509;-72
2024/01/02 03:05:59;;;;;;;5.05;1.50;;;5.10;99.90;;;;;;2060825;28;20034;-72
2024/01/02 03:06:59;;;;;;;5.78;1.60;;;5.10;99.90;;;;;;2059513;28;20094;-72
2024/01/02 03:08:00;;;;;;;4.07;1.30;;;5.10;99.90;;;;;;2058661;28;20852;-72
2024/01/02 03:09:00;;;;;;;3.40;1.30;;;5.00;99.90;;;;;;2058990;28;20085;-72
2024/01/02 03:10:01;;;;;;;4.93;1.25;;;5.10;99.90;;;;;;2059613;28;20076;-72
2024/01/02 03:11:02;;;;;;;6.72;1.60;;;5.10;99.90;;;;;;2060484;28;20031;-72
2024/01/02 03:12:03;;;;;;;6.07;1.30;;;5.10;99.90;;;;;;2063336;28;20089;-72
2024/01/02 03:13:03;;;;;;;4.53;1.30;;;5.10;99.90;;;;;;2062111;28;21290;-72
2024/01/02 03:14:04;;;;;;;4.28;1.40;;;5.20;99.90;;;;;;2061003;28;20034;-72
2024/01/02 03:15:05;;;;;;;5.65;1.38;;;5.10;99.90;;;;;;2063366;28;20030;-72
2024/01/02 03:16:09;;;;;;;5.13;1.48;;;5.20;99.90;;;;;;2062363;28;20059;-72
2024/01/02 03:17:09;;;;;;;5.70;1.50;;;5.20;99.90;;;;;;2056617;28;20031;-72
2024/01/02 03:18:10;;;;;;;3.88;1.20;;;5.20;99.90;;;;;;2062460;28;20022;-71
2024/01/02 03:19:10;;;;;;;5.00;1.33;;;5.20;99.90;;;;;;2062989;28;20212;-72
2024/01/02 03:20:11;;;;;;;6.30;1.40;;;5.20;99.90;;;;;;2055796;28;20520;-71
2024/01/02 03:21:11;;;;;;;2.83;1.40;;;5.20;99.90;;;;;;2069987;28;20053;-72
2024/01/02 03:22:12;;;;;;;4.35;1.40;;;5.20;99.90;;;;;;2070417;28;20115;-73
2024/01/02 03:23:12;;;;;;;5.25;1.40;;;5.20;99.90;;;;;;2059608;28;20044;-70
2024/01/02 03:24:13;;;;;;;4.05;1.42;;;5.20;99.90;;;;;;2054725;28;20445;-71
2024/01/02 03:25:14;;;;;;;5.57;1.55;;;5.20;99.90;;;;;;2050803;28;20031;-71
2024/01/02 03:26:14;;;;;;;4.05;1.70;;;5.20;99.90;;;;;;2059467;28;20037;-71
2024/01/02 03:27:15;;;;;;;5.13;1.60;;;5.30;99.90;;;;;;2059601;28;20036;-71
2024/01/02 03:28:15;;;;;;;4.13;1.65;;;5.30;99.90;;;;;;2062378;28;20025;-71
2024/01/02 03:29:19;;;;;;;4.82;1.50;;;5.20;99.90;;;;;;2062923;28;20053;-70
2024/01/02 03:30:19;;;;;;;4.85;1.42;;;5.20;99.90;;;;;;2054783;28;20117;-69
2024/01/02 03:31:20;;;;;;;3.05;1.30;;;5.30;99.90;;;;;;2058602;28;20030;-71
2024/01/02 03:32:20;;;;;;;7.30;1.60;;;5.30;99.90;;;;;;2059301;28;20026;-71
2024/01/02 03:33:21;;;;;;;5.57;1.60;;;5.30;99.90;;;;;;2059576;28;20053;-71
2024/01/02 03:34:22;;;;;;;4.68;1.63;;;5.30;99.90;;;;;;2063252;28;20034;-71
2024/01/02 03:35:22;;;;;;;5.55;1.50;;;5.30;99.90;;;;;;2063388;28;20026;-71
2024/01/02 03:36:23;;;;;;;7.68;1.63;;;5.30;99.90;;;;;;2059786;28;20053;-71
2024/01/02 03:37:24;;;;;;;4.85;1.45;;;5.30;99.90;;;;;;2062836;28;20026;-71
2024/01/02 03:38:24;;;;;;;4.10;1.30;;;5.20;99.90;;;;;;2062507;28;20121;-72
2024/01/02 03:39:25;;;;;;;4.63;1.45;;;5.20;99.90;;;;;;2059403;28;20037;-72
2024/01/02 03:40:25;;;;;;;5.00;1.30;;;5.20;99.90;;;;;;2062518;28;20034;-71
2024/01/02 03:41:26;;;;;;;4.30;1.60;;;5.20;99.90;;;;;;2063074;28;20042;-71
2024/01/02 03:42:26;;;;;;;4.07;1.30;;;5.20;99.90;;;;;;2059678;28;20178;-71
2024/01/02 03:43:27;;;;;;;3.78;1.70;;;5.20;99.90;;;;;;2049698;28;20086;-71
2024/01/02 03:44:27;;;;;;;6.25;1.60;;;5.20;99.90;;;;;;2062746;28;20125;-71
2024/01/02 03:45:28;;;;;;;4.45;1.40;;;5.20;99.90;;;;;;2059896;28;20109;-71
2024/01/02 03:46:28;;;;;;;5.95;1.65;;;5.10;99.90;;;;;;2059906;28;20260;-71
2024/01/02 03:47:29;;;;;;;4.43;1.30;;;5.10;99.90;;;;;;2062594;28;20035;-71
2024/01/02 03:48:29;;;;;;;5.68;1.95;;;5.10;99.90;;;;;;2063532;28;20030;-71
2024/01/02 03:49:30;;;;;;;4.47;1.55;;;5.10;99.90;;;;;;2060336;28;20515;-71
2024/01/02 03:50:30;;;;;;;6.72;1.60;;;5.10;99.90;;;;;;2062164;28;20556;-71
2024/01/02 03:51:31;;;;;;;6.40;1.60;;;5.10;99.90;;;;;;2062853;28;20034;-71
2024/01/02 03:52:31;;;;;;;3.38;1.40;;;5.10;99.90;;;;;;2059606;28;20030;-71
2024/01/02 03:53:32;;;;;;;3.60;1.20;;;5.10;99.90;;;;;;2059437;28;20054;-71
2024/01/02 03:54:33;;;;;;;4.03;1.25;;;5.10;99.90;;;;;;2058085;28;20026;-71
2024/01/02 03:55:33;;;;;;;3.97;1.48;;;5.10;99.90;;;;;;2060526;28;20581;-71
2024/01/02 03:56:34;;;;;;;5.28;1.70;;;5.00;99.90;;;;;;2062100;28;20136;-71
2024/01/02 03:57:34;;;;;;;6.43;1.73;;;5.10;99.90;;;;;;2059273;28;20038;-71
2024/01/02 03:58:36;;;;;;;5.32;1.40;;;5.10;99.90;;;;;;2060890;28;20109;-71
2024/01/02 03:59:36;;;;;;;3.67;1.35;;;5.10;99.90;;;;;;2061412;28;20129;-71
2024/01/02 04:00:37;;;;;;;4.55;1.30;;;5.10;99.90;;;;;;2062306;28;20057;-71
2024/01/02 04:01:44;;;;;;;6.32;1.35;;;5.10;99.90;;;;;;2060195;28;20034;-70
2024/01/02 04:02:45;;;;;;;4.45;1.50;;;5.10;99.90;;;;;;2060488;28;20534;-72
2024/01/02 04:03:46;;;;;;;6.60;1.42;;;5.10;99.90;;;;;;2059234;28;20035;-71
2024/01/02 04:04:46;;;;;;;4.78;1.50;;;5.10;99.90;;;;;;2059265;28;20049;-71
2024/01/02 04:05:47;;;;;;;2.42;1.25;;;5.10;99.90;;;;;;2059376;28;20144;-71
2024/01/02 04:06:48;;;;;;;2.95;1.30;;;5.10;99.90;;;;;;2059111;28;20415;-71
2024/01/02 04:07:48;;;;;;;3.75;1.52;;;5.10;99.90;;;;;;2059299;28;20080;-70
2024/01/02 04:08:49;;;;;;;3.85;1.35;;;5.10;99.90;;;;;;2063227;28;20046;-70
2024/01/02 04:09:51;;;;;;;5.38;1.38;;;5.10;99.90;;;;;;2055266;28;20081;-71
2024/01/02 04:10:51;;;;;;;2.85;1.10;;;5.10;99.90;;;;;;2059349;28;20072;-71
2024/01/02 04:11:53;;;;;;;2.88;1.08;;;5.10;99.90;;;;;;2059231;28;20038;-71
2024/01/02 04:12:53;;;;;;;4.80;1.63;;;5.10;99.90;;;;;;2062595;28;20022;-71
2024/01/02 04:13:54;;;;;;;3.25;1.55;;;5.10;99.90;;;;;;2059953;28;20117;-71
2024/01/02 04:14:54;;;;;;;3.15;1.33;;;5.10;99.90;;;;;;2059268;28;20022;-71
2024/01/02 04:15:55;;;;;;;4.25;1.45;;;5.10;99.90;;;;;;2059540;28;20077;-71
2024/01/02 04:16:56;;;;;;;3.38;1.33;;;5.10;99.90;;;;;;2059341;28;20033;-71
2024/01/02 04:17:56;;;;;;;4.85;1.50;;;5.10;99.90;;;;;;2059130;28;20035;-71
2024/01/02 04:18:57;;;;;;;7.25;1.52;;;5.10;99.90;;;;;;2058935;28;20103;-71
2024/01/02 04:19:57;;;;;;;3.17;1.50;;;5.10;99.90;;;;;;2061173;28;20114;-71
2024/01/02 04:20:58;;;;;;;4.88;1.63;;;5.10;99.90;;;;;;2059557;28;20034;-72
2024/01/02 04:21:59;;;;;;;7.03;1.48;;;5.10;99.90;;;;;;2055155;28;20506;-71
2024/01/02 04:22:59;;;;;;;4.18;1.40;;;5.10;99.90;;;;;;2059118;28;20464;-70
2024/01/02 04:24:00;;;;;;;4.72;1.55;;;5.10;99.90;;;;;;2064207;28;20037;-70
2024/01/02 04:25:00;;;;;;;3.95;1.30;;;5.00;99.90;;;;;;2062588;28;20054;-71
2024/01/02 04:26:01;;;;;;;3.22;1.17;;;5.00;99.90;;;;;;2059271;28;20022;-72
2024/01/02 04:27:02;;;;;;;5.82;1.63;;;5.10;99.90;;;;;;2059344;28;20512;-72
2024/01/02 04:28:02;;;;;;;5.63;1.63;;;5.00;99.90;;;;;;2058948;28;20034;-72
2024/01/02 04:29:03;;;;;;;2.90;1.48;;;5.00;99.90;;;;;;2059589;28;20025;-72
2024/01/02 04:30:04;;;;;;;5.05;1.65;;;5.00;99.90;;;;;;2059435;28;20057;-72
2024/01/02 04:31:06;;;;;;;4.90;1.52;;;5.10;99.90;;;;;;2059283;28;20105;-72
2024/01/02 04:32:07;;;;;;;3.90;1.40;;;5.10;99.90;;;;;;2059195;28;20306;-72
2024/01/02 04:33:08;;;;;;;5.43;1.40;;;5.10;99.90;;;;;;2059683;28;20049;-71
2024/01/02 04:34:08;;;;;;;6.65;1.70;;;5.10;99.90;;;;;;2062719;28;20061;-72
2024/01/02 04:35:09;;;;;;;10.32;1.70;;;5.10;99.90;;;;;;2058955;28;20030;-72
2024/01/02 04:36:09;;;;;;;4.45;1.60;;;5.10;99.90;;;;;;2051444;28;20027;-71
2024/01/02 04:37:11;;;;;;;5.00;1.75;;;5.10;99.90;;;;;;2061791;28;20027;-72
2024/01/02 04:38:11;;;;;;;7.50;1.67;;;5.10;99.90;;;;;;2059089;28;20045;-72
2024/01/02 04:39:12;;;;;;;7.90;1.70;;;5.10;99.90;;;;;;2058484;28;20477;-72
2024/01/02 04:40:12;;;;;;;6.03;1.80;;;5.10;99.90;;;;;;2058528;28;20076;-72
2024/01/02 04:41:13;;;;;;;5.75;1.80;;;5.10;99.90;;;;;;2059263;28;20061;-73
2024/01/02 04:42:14;;;;;;;6.10;1.73;;;5.10;99.90;;;;;;2060096;28;20061;-72
2024/01/02 04:43:14;;;;;;;7.25;1.85;;;5.10;99.90;;;;;;2061977;28;20026;-71
2024/01/02 04:44:15;;;;;;;8.98;2.08;;;5.10;99.90;;;;;;2063284;28;20103;-72
2024/01/02 04:45:15;;;;;;;7.63;2.13;;;5.00;99.90;;;;;;2060675;28;20026;-72
2024/01/02 04:46:16;;;;;;;5.15;1.92;;;5.10;99.90;;;;;;2060027;28;20042;-72
2024/01/02 04:47:16;;;;;;;7.57;1.80;;;5.00;99.90;;;;;;2059770;28;20038;-72
2024/01/02 04:48:17;;;;;;;6.88;2.05;;;5.00;99.90;;;;;;2060544;28;20108;-72
2024/01/02 04:49:18;;;;;;;7.88;2.00;;;5.00;99.90;;;;;;2060727;28;20049;-72
2024/01/02 04:50:18;;;;;;;7.90;2.10;;;5.00;99.90;;;;;;2059735;28;20026;-73
2024/01/02 04:51:19;;;;;;;4.90;1.67;;;5.00;99.90;;;;;;2061819;28;20037;-71
2024/01/02 04:52:20;;;;;;;7.82;2.00;;;5.00;99.90;;;;;;2067719;28;20029;-73
2024/01/02 04:53:20;;;;;;;6.72;1.80;;;5.00;99.90;;;;;;2069737;28;20025;-72
2024/01/02 04:54:21;;;;;;;7.75;2.10;;;5.00;99.90;;;;;;2059357;28;20040;-74
2024/01/02 04:55:21;;;;;;;7.32;1.95;;;5.00;99.90;;;;;;2061504;28;20038;-71
2024/01/02 04:56:22;;;;;;;5.53;1.88;;;5.00;99.90;;;;;;2056397;28;20034;-71
2024/01/02 04:57:22;;;;;;;7.05;2.25;;;5.00;99.90;;;;;;2063001;28;20763;-71
2024/01/02 04:58:23;;;;;;;20.70;10.70;;;5.00;99.90;;;;;;2061951;28;20030;-72
2024/01/02 04:59:23;;;;;;;17.50;7.70;;;5.00;99.90;;;;;;2064629;28;20083;-72
2024/01/02 05:00:24;;;;;;;7.95;2.22;;;5.00;99.90;;;;;;2062748;28;20048;-72
2024/01/02 05:01:24;;;;;;;10.13;6.65;;;5.00;99.90;;;;;;2071145;28;20104;-72
2024/01/02 05:02:25;;;;;;;6.75;2.75;;;5.00;99.90;;;;;;2069976;28;20025;-70
2024/01/02 05:03:26;;;;;;;6.30;2.40;;;5.00;99.90;;;;;;2064424;28;20092;-70
2024/01/02 05:04:27;;;;;;;7.28;2.40;;;5.00;99.90;;;;;;2060478;28;20502;-70
2024/01/02 05:05:27;;;;;;;7.60;2.20;;;5.10;99.90;;;;;;2060526;28;20042;-71
2024/01/02 05:06:28;;;;;;;9.93;2.58;;;5.00;99.90;;;;;;2057202;28;20479;-70
2024/01/02 05:07:28;;;;;;;7.40;2.00;;;5.10;99.90;;;;;;2061164;28;20034;-70
2024/01/02 05:08:29;;;;;;;7.78;2.00;;;5.10;99.90;;;;;;2060598;28;20093;-71
2024/01/02 05:09:29;;;;;;;8.38;2.20;;;5.10;99.90;;;;;;2060516;28;20061;-71
2024/01/02 05:10:30;;;;;;;6.85;2.35;;;5.10;99.90;;;;;;2059705;28;20030;-70
2024/01/02 05:11:36;;;;;;;10.18;2.55;;;5.10;99.90;;;;;;2063337;28;20026;-70
2024/01/02 05:12:36;;;;;;;7.20;2.30;;;5.10;99.90;;;;;;2063985;28;20033;-74
2024/01/02 05:13:38;;;;;;;9.15;2.70;;;5.10;99.90;;;;;;2060638;28;20064;-74
2024/01/02 05:14:38;;;;;;;7.65;3.40;;;5.10;99.90;;;;;;2060672;28;20041;-73
2024/01/02 05:15:39;;;;;;;10.82;4.35;;;5.10;99.90;;;;;;2064471;28;20044;-75
2024/01/02 05:16:39;;;;;;;19.83;7.90;;;5.10;99.90;;;;;;2060483;28;20088;-76
2024/01/02 05:17:40;;;;;;;34.15;13.95;;;5.10;99.90;;;;;;2064146;28;20127;-74
2024/01/02 05:18:41;;;;;;;11.77;4.43;;;5.10;99.90;;;;;;2063504;28;20029;-74
2024/01/02 05:19:41;;;;;;;5.88;2.70;;;5.10;99.90;;;;;;2060001;28;20036;-74